createdAt,value
2019-03-02T00:00:02.088Z,24.77
2019-03-02T00:02:12.349Z,27.13
2019-03-02T00:04:23.200Z,26.97
2019-03-02T00:06:35.716Z,25.77
2019-03-02T00:08:46.726Z,26.83
2019-03-02T00:10:57.506Z,28.23
2019-03-02T00:13:08.733Z,26.20
2019-03-02T00:15:21.043Z,26.87
2019-03-02T00:17:31.846Z,28.47
2019-03-02T00:19:42.685Z,26.97
2019-03-02T00:21:53.441Z,27.67
2019-03-02T00:24:04.252Z,26.83
2019-03-02T00:26:35.320Z,28.13
2019-03-02T00:28:46.150Z,27.67
2019-03-02T00:30:57.884Z,28.97
2019-03-02T00:33:11.458Z,26.70
2019-03-02T00:35:22.481Z,27.10
2019-03-02T00:37:33.768Z,27.17
2019-03-02T00:39:46.029Z,26.97
2019-03-02T00:41:56.907Z,26.80
2019-03-02T00:44:51.234Z,28.97
2019-03-02T00:47:02.172Z,29.37
2019-03-02T00:49:13.010Z,28.27
2019-03-02T00:51:23.812Z,29.73
2019-03-02T00:53:35.582Z,26.40
2019-03-02T00:55:47.322Z,27.53
2019-03-02T00:57:58.117Z,28.53
2019-03-02T01:00:28.804Z,27.73
2019-03-02T01:02:40.446Z,29.13
2019-03-02T01:04:52.556Z,27.90
2019-03-02T01:09:35.694Z,27.73
2019-03-02T01:11:46.513Z,27.27
2019-03-02T01:13:57.652Z,27.90
2019-03-02T01:16:10.041Z,26.00
2019-03-02T01:18:21.266Z,28.00
2019-03-02T01:20:33.588Z,26.17
2019-03-02T01:22:44.406Z,26.27
2019-03-02T01:24:55.212Z,26.10
2019-03-02T01:27:06.051Z,26.53
2019-03-02T01:29:19.117Z,27.07
2019-03-02T01:31:29.655Z,25.87
2019-03-02T01:33:40.454Z,24.10
2019-03-02T01:35:53.931Z,24.43
2019-03-02T01:38:04.019Z,24.13
2019-03-02T01:40:14.949Z,24.17
2019-03-02T01:42:29.395Z,22.47
2019-03-02T01:44:38.570Z,21.67
2019-03-02T01:46:49.403Z,23.77
2019-03-02T01:49:01.548Z,21.00
2019-03-02T01:51:12.922Z,21.43
2019-03-02T01:53:23.880Z,20.70
2019-03-02T01:55:34.668Z,20.90
2019-03-02T01:57:48.857Z,22.27
2019-03-02T01:59:58.180Z,21.07
2019-03-02T02:02:09.084Z,22.43
2019-03-02T02:04:22.735Z,21.87
2019-03-02T02:06:32.609Z,20.57
2019-03-02T02:08:43.421Z,20.50
2019-03-02T02:10:54.209Z,19.87
2019-03-02T02:13:06.306Z,21.50
2019-03-02T02:15:37.787Z,21.07
2019-03-02T02:17:49.565Z,21.83
2019-03-02T02:20:01.538Z,21.93
2019-03-02T02:22:12.352Z,23.00
2019-03-02T02:24:24.825Z,22.47
2019-03-02T02:26:35.982Z,22.97
2019-03-02T02:28:46.784Z,21.30
2019-03-02T02:31:01.624Z,22.07
2019-03-02T02:33:10.328Z,21.37
2019-03-02T02:35:21.134Z,22.30
2019-03-02T02:37:36.559Z,23.27
2019-03-02T02:39:44.776Z,22.83
2019-03-02T02:41:59.950Z,22.97
2019-03-02T02:44:08.269Z,21.37
2019-03-02T02:46:19.056Z,22.10
2019-03-02T02:48:31.227Z,22.00
2019-03-02T02:50:43.090Z,21.47
2019-03-02T02:52:55.280Z,22.20
2019-03-02T02:55:47.749Z,22.90
2019-03-02T02:57:58.559Z,23.83
2019-03-02T03:00:55.044Z,23.30
2019-03-02T03:03:03.756Z,22.07
2019-03-02T03:05:56.221Z,22.70
2019-03-02T03:08:07.024Z,22.77
2019-03-02T03:13:01.853Z,22.73
2019-03-02T03:15:09.881Z,22.33
2019-03-02T03:17:20.778Z,21.97
2019-03-02T03:19:32.416Z,21.53
2019-03-02T03:21:44.365Z,22.30
2019-03-02T03:24:02.974Z,21.33
2019-03-02T03:26:07.994Z,20.97
2019-03-02T03:28:18.812Z,21.80
2019-03-02T03:30:35.680Z,20.87
2019-03-02T03:32:54.614Z,21.33
2019-03-02T03:34:55.039Z,20.43
2019-03-02T03:37:08.311Z,21.37
2019-03-02T03:39:18.535Z,20.90
2019-03-02T03:41:29.374Z,21.87
2019-03-02T03:43:42.865Z,20.97
2019-03-02T03:45:52.950Z,20.37
2019-03-02T03:48:03.742Z,21.83
2019-03-02T03:50:15.842Z,21.83
2019-03-02T03:52:27.352Z,22.30
2019-03-02T03:54:40.978Z,19.37
2019-03-02T03:57:32.508Z,20.67
2019-03-02T03:59:43.421Z,22.30
2019-03-02T04:01:56.849Z,20.77
2019-03-02T04:04:06.933Z,19.47
2019-03-02T04:06:17.835Z,20.70
2019-03-02T04:08:29.862Z,20.47
2019-03-02T04:10:41.384Z,20.57
2019-03-02T04:12:52.190Z,20.00
2019-03-02T04:15:44.662Z,19.87
2019-03-02T04:17:55.483Z,21.83
2019-03-02T04:20:49.642Z,19.70
2019-03-02T04:23:42.314Z,20.30
2019-03-02T04:25:56.672Z,20.10
2019-03-02T04:28:05.832Z,20.67
2019-03-02T04:30:16.622Z,20.63
2019-03-02T04:32:28.852Z,20.30
2019-03-02T04:34:40.179Z,20.20
2019-03-02T04:36:50.966Z,19.17
2019-03-02T04:39:01.882Z,20.37
2019-03-02T04:41:12.690Z,20.00
2019-03-02T04:43:23.517Z,18.90
2019-03-02T04:45:36.462Z,20.83
2019-03-02T04:47:47.026Z,20.70
2019-03-02T04:49:57.844Z,20.57
2019-03-02T04:52:11.574Z,18.93
2019-03-02T04:54:21.388Z,19.03
2019-03-02T04:56:32.176Z,17.53
2019-03-02T04:58:43.629Z,18.93
2019-03-02T05:00:55.719Z,18.93
2019-03-02T05:03:06.519Z,18.40
2019-03-02T05:05:17.345Z,18.10
2019-03-02T05:07:30.160Z,17.57
2019-03-02T05:09:40.873Z,18.87
2019-03-02T05:11:51.701Z,18.67
2019-03-02T05:14:04.288Z,18.30
2019-03-02T05:16:15.294Z,17.57
2019-03-02T05:18:26.117Z,17.93
2019-03-02T05:20:37.805Z,16.40
2019-03-02T05:22:50.722Z,17.77
2019-03-02T05:25:43.994Z,18.10
2019-03-02T05:27:54.794Z,17.17
2019-03-02T05:30:26.860Z,16.23
2019-03-02T05:32:38.201Z,17.27
2019-03-02T05:34:49.028Z,14.23
2019-03-02T05:37:02.809Z,17.40
2019-03-02T05:39:13.844Z,13.90
2019-03-02T05:41:25.297Z,16.60
2019-03-02T05:43:36.094Z,15.77
2019-03-02T05:45:46.925Z,15.97
2019-03-02T05:48:01.012Z,15.87
2019-03-02T05:50:52.115Z,16.67
2019-03-02T05:53:03.026Z,15.40
2019-03-02T05:55:18.053Z,16.90
2019-03-02T05:57:26.536Z,15.47
2019-03-02T05:59:37.338Z,13.73
2019-03-02T06:01:48.182Z,15.07
2019-03-02T06:03:58.987Z,15.17
2019-03-02T06:06:09.821Z,14.77
2019-03-02T06:08:40.509Z,16.37
2019-03-02T06:10:51.338Z,14.10
2019-03-02T06:13:02.149Z,14.87
2019-03-02T06:18:07.733Z,15.57
2019-03-02T06:20:18.302Z,15.07
2019-03-02T06:22:29.117Z,15.00
2019-03-02T06:24:41.025Z,14.70
2019-03-02T06:29:32.741Z,14.33
2019-03-02T06:31:44.260Z,12.30
2019-03-02T06:33:55.303Z,14.43
2019-03-02T06:36:08.750Z,14.57
2019-03-02T06:38:18.864Z,15.30
2019-03-02T06:40:29.676Z,14.33
2019-03-02T06:42:41.940Z,15.83
2019-03-02T06:44:53.266Z,15.00
2019-03-02T06:47:05.704Z,15.73
2019-03-02T06:49:19.857Z,14.53
2019-03-02T06:51:29.509Z,13.90
2019-03-02T06:53:40.333Z,16.37
2019-03-02T06:55:51.131Z,14.70
2019-03-02T06:58:01.973Z,15.23
2019-03-02T07:00:54.420Z,16.43
2019-03-02T07:03:06.706Z,17.27
2019-03-02T07:05:17.938Z,16.70
2019-03-02T07:07:28.734Z,16.47
2019-03-02T07:09:41.807Z,17.30
2019-03-02T07:11:52.269Z,15.93
2019-03-02T07:14:03.092Z,15.10
2019-03-02T07:16:16.589Z,16.67
2019-03-02T07:18:46.491Z,16.20
2019-03-02T07:20:59.637Z,16.60
2019-03-02T07:23:10.038Z,17.73
2019-03-02T07:25:20.995Z,17.43
2019-03-02T07:27:31.788Z,16.87
2019-03-02T07:29:42.719Z,16.87
2019-03-02T07:31:53.520Z,16.63
2019-03-02T07:34:04.829Z,16.73
2019-03-02T07:36:17.069Z,19.00
2019-03-02T07:38:27.854Z,17.13
2019-03-02T07:40:41.304Z,20.70
2019-03-02T07:42:51.381Z,21.00
2019-03-02T07:45:43.853Z,20.43
2019-03-02T07:47:56.023Z,19.30
2019-03-02T07:50:49.059Z,17.60
2019-03-02T07:52:59.880Z,20.10
2019-03-02T07:55:53.623Z,19.77
2019-03-02T07:58:05.082Z,19.80
2019-03-02T08:00:57.558Z,19.47
2019-03-02T08:03:08.372Z,20.70
2019-03-02T08:05:19.294Z,20.93
2019-03-02T08:07:30.128Z,21.10
2019-03-02T08:09:40.936Z,20.87
2019-03-02T08:12:33.406Z,20.23
2019-03-02T08:14:44.485Z,21.03
2019-03-02T08:16:56.971Z,19.63
2019-03-02T08:19:07.786Z,20.07
2019-03-02T08:21:18.634Z,21.67
2019-03-02T08:23:29.489Z,20.90
2019-03-02T08:25:40.295Z,21.33
2019-03-02T08:27:51.701Z,20.83
2019-03-02T08:30:45.580Z,19.40
2019-03-02T08:32:57.895Z,19.57
2019-03-02T08:35:50.755Z,18.70
2019-03-02T08:38:05.068Z,20.37
2019-03-02T08:40:56.235Z,20.50
2019-03-02T08:43:08.801Z,20.60
2019-03-02T08:45:19.688Z,19.97
2019-03-02T08:47:30.515Z,19.43
2019-03-02T08:49:41.868Z,19.83
2019-03-02T08:51:54.040Z,18.47
2019-03-02T08:54:04.852Z,19.67
2019-03-02T08:56:15.699Z,18.70
2019-03-02T08:58:26.750Z,17.73
2019-03-02T09:00:38.989Z,18.97
2019-03-02T09:02:50.474Z,18.23
2019-03-02T09:05:01.287Z,18.27
2019-03-02T09:07:12.186Z,19.03
2019-03-02T09:09:23.109Z,17.40
2019-03-02T09:11:33.944Z,17.63
2019-03-02T09:13:44.775Z,17.73
2019-03-02T09:15:55.587Z,17.33
2019-03-02T09:18:06.521Z,18.03
2019-03-02T09:20:17.446Z,16.43
2019-03-02T09:22:28.294Z,16.67
2019-03-02T09:24:39.090Z,16.03
2019-03-02T09:26:49.890Z,16.00
2019-03-02T09:29:00.755Z,15.13
2019-03-02T09:31:53.202Z,14.87
2019-03-02T09:34:04.364Z,14.53
2019-03-02T09:36:16.755Z,13.83
2019-03-02T09:38:27.584Z,14.57
2019-03-02T09:40:38.419Z,13.27
2019-03-02T09:42:49.332Z,13.30
2019-03-02T09:45:00.319Z,13.23
2019-03-02T09:47:12.739Z,12.53
2019-03-02T09:49:23.924Z,12.37
2019-03-02T09:51:34.746Z,12.20
2019-03-02T09:53:45.678Z,12.03
2019-03-02T09:55:58.146Z,12.57
2019-03-02T09:58:09.225Z,12.83
2019-03-02T10:01:04.468Z,12.80
2019-03-02T10:03:14.444Z,12.47
2019-03-02T10:05:26.299Z,11.83
2019-03-02T10:07:39.236Z,11.77
2019-03-02T10:09:50.942Z,12.63
2019-03-02T10:12:01.869Z,12.03
2019-03-02T10:14:32.596Z,11.47
2019-03-02T10:16:43.405Z,12.00
2019-03-02T10:18:54.221Z,11.40
2019-03-02T10:21:05.167Z,11.83
2019-03-02T10:23:15.963Z,12.13
2019-03-02T10:25:32.023Z,12.40
2019-03-02T10:27:39.587Z,12.63
2019-03-02T10:29:50.404Z,11.77
2019-03-02T10:32:01.247Z,11.37
2019-03-02T10:34:12.101Z,11.57
2019-03-02T10:36:25.776Z,11.73
2019-03-02T10:38:35.679Z,11.57
2019-03-02T10:40:46.569Z,10.57
2019-03-02T10:42:57.377Z,10.87
2019-03-02T10:45:49.845Z,10.57
2019-03-02T10:48:00.650Z,11.67
2019-03-02T10:50:31.352Z,10.27
2019-03-02T10:52:42.180Z,9.50
2019-03-02T10:54:53.010Z,10.37
2019-03-02T10:57:03.863Z,9.27
2019-03-02T10:59:15.529Z,9.57
2019-03-02T11:01:27.543Z,10.33
2019-03-02T11:03:38.358Z,10.30
2019-03-02T11:06:09.042Z,8.93
2019-03-02T11:08:39.947Z,8.53
2019-03-02T11:11:10.630Z,7.63
2019-03-02T11:13:51.844Z,7.40
2019-03-02T11:16:22.750Z,8.23
2019-03-02T11:18:53.432Z,7.73
2019-03-02T11:21:24.163Z,7.67
2019-03-02T11:23:57.534Z,7.30
2019-03-02T11:26:27.418Z,7.43
2019-03-02T11:28:58.167Z,7.00
2019-03-02T11:31:28.846Z,6.63
2019-03-02T11:33:59.854Z,6.80
2019-03-02T11:36:30.601Z,7.53
2019-03-02T11:39:01.488Z,7.13
2019-03-02T11:44:04.627Z,6.67
2019-03-02T11:46:35.320Z,7.30
2019-03-02T11:51:27.150Z,7.80
2019-03-02T11:56:26.659Z,7.37
2019-03-02T11:58:52.089Z,6.87
2019-03-02T12:01:22.852Z,7.10
2019-03-02T12:03:53.557Z,6.73
2019-03-02T12:06:24.345Z,7.63
2019-03-02T12:08:57.929Z,7.57
2019-03-02T12:13:49.980Z,7.60
2019-03-02T12:16:22.021Z,8.37
2019-03-02T12:18:54.173Z,7.23
2019-03-02T12:21:25.990Z,7.87
2019-03-02T12:23:56.677Z,7.37
2019-03-02T12:26:27.372Z,7.30
2019-03-02T12:28:58.042Z,7.10
2019-03-02T12:31:31.908Z,7.33
2019-03-02T12:34:01.343Z,7.67
2019-03-02T12:36:32.046Z,8.03
2019-03-02T12:39:02.737Z,7.90
2019-03-02T12:41:33.484Z,8.20
2019-03-02T12:44:04.174Z,8.27
2019-03-02T12:49:15.482Z,7.63
2019-03-02T12:51:46.165Z,8.50
2019-03-02T12:54:16.834Z,8.77
2019-03-02T12:56:47.535Z,8.67
2019-03-02T13:06:18.414Z,8.10
2019-03-02T13:08:49.230Z,8.57
2019-03-02T13:13:52.763Z,10.20
2019-03-02T13:16:25.065Z,9.37
2019-03-02T13:18:55.794Z,8.50
2019-03-02T13:21:26.478Z,8.90
2019-03-02T13:26:15.547Z,8.57
2019-03-02T13:28:46.439Z,9.63
2019-03-02T13:33:49.550Z,9.07
2019-03-02T13:36:20.216Z,8.00
2019-03-02T13:38:50.950Z,8.70
2019-03-02T13:41:30.078Z,10.10
2019-03-02T13:43:54.377Z,10.50
2019-03-02T13:46:25.077Z,10.47
2019-03-02T13:48:58.289Z,9.27
2019-03-02T13:51:30.014Z,9.63
2019-03-02T13:56:33.446Z,11.13
2019-03-02T14:01:36.526Z,9.93
2019-03-02T14:08:57.991Z,9.83
2019-03-02T14:11:28.699Z,9.47
2019-03-02T14:13:59.372Z,9.90
2019-03-02T14:19:05.866Z,9.13
2019-03-02T14:21:38.762Z,9.13
2019-03-02T14:24:10.225Z,8.90
2019-03-02T14:31:21.141Z,9.80
2019-03-02T14:33:51.838Z,8.93
2019-03-02T14:36:22.737Z,9.03
2019-03-02T14:43:35.863Z,8.87
2019-03-02T14:46:07.202Z,10.23
2019-03-02T14:53:15.476Z,7.57
2019-03-02T15:00:37.037Z,7.53
2019-03-02T15:03:07.736Z,7.23
2019-03-02T15:05:38.536Z,5.93
2019-03-02T15:08:09.276Z,7.10
2019-03-02T15:10:39.968Z,6.53
2019-03-02T15:13:10.702Z,6.50
2019-03-02T15:15:41.485Z,6.03
2019-03-02T15:20:44.576Z,5.10
2019-03-02T15:25:47.642Z,6.23
2019-03-02T15:28:18.340Z,6.60
2019-03-02T15:30:49.049Z,6.17
2019-03-02T15:33:19.720Z,6.97
2019-03-02T15:35:50.432Z,7.13
2019-03-02T15:38:21.129Z,6.60
2019-03-02T15:40:51.940Z,7.33
2019-03-02T15:43:22.756Z,7.67
2019-03-02T15:45:55.409Z,6.87
2019-03-02T15:50:58.460Z,6.07
2019-03-02T15:58:24.710Z,7.10
2019-03-02T16:01:17.218Z,7.47
2019-03-02T16:03:47.923Z,7.13
2019-03-02T16:06:19.640Z,7.40
2019-03-02T16:13:49.572Z,8.47
2019-03-02T16:16:14.890Z,6.60
2019-03-02T16:18:49.186Z,6.60
2019-03-02T16:21:19.586Z,7.20
2019-03-02T16:23:50.942Z,6.30
2019-03-02T16:26:21.666Z,6.77
2019-03-02T16:28:52.378Z,6.80
2019-03-02T16:33:55.441Z,6.37
2019-03-02T16:36:26.314Z,6.07
2019-03-02T16:38:57.024Z,6.17
2019-03-02T16:41:31.163Z,6.00
2019-03-02T16:44:03.218Z,5.90
2019-03-02T16:46:35.101Z,5.93
2019-03-02T16:49:06.147Z,6.03
2019-03-02T16:51:36.995Z,5.20
2019-03-02T16:54:07.678Z,5.90
2019-03-02T16:59:10.844Z,5.90
2019-03-02T17:01:41.518Z,5.57
2019-03-02T17:06:30.856Z,6.13
2019-03-02T17:09:01.559Z,5.47
2019-03-02T17:11:35.481Z,5.60
2019-03-02T17:14:09.221Z,5.73
2019-03-02T17:19:10.099Z,5.43
2019-03-02T17:21:40.903Z,5.73
2019-03-02T17:24:11.609Z,5.93
2019-03-02T17:29:14.756Z,5.63
2019-03-02T17:31:45.453Z,5.50
2019-03-02T17:36:41.713Z,5.27
2019-03-02T17:39:11.205Z,5.37
2019-03-02T17:46:47.113Z,5.57
2019-03-02T17:49:28.210Z,4.90
2019-03-02T17:54:14.074Z,5.23
2019-03-02T17:59:04.183Z,5.43
2019-03-02T18:01:36.625Z,5.13
2019-03-02T18:04:07.320Z,4.67
2019-03-02T18:06:38.129Z,5.27
2019-03-02T18:09:08.835Z,5.73
2019-03-02T18:11:39.574Z,5.17
2019-03-02T18:14:10.265Z,5.40
2019-03-02T18:16:41.398Z,5.40
2019-03-02T18:18:53.674Z,4.73
2019-03-02T18:21:04.516Z,5.07
2019-03-02T18:23:18.951Z,5.70
2019-03-02T18:25:28.326Z,5.63
2019-03-02T18:27:39.151Z,5.30
2019-03-02T18:29:50.172Z,5.13
2019-03-02T18:32:02.271Z,5.20
2019-03-02T18:36:49.779Z,4.97
2019-03-02T18:39:00.973Z,5.13
2019-03-02T18:41:12.329Z,4.80
2019-03-02T18:43:24.351Z,4.67
2019-03-02T18:45:35.868Z,4.13
2019-03-02T18:47:47.948Z,4.47
2019-03-02T18:50:18.627Z,4.03
2019-03-02T18:52:49.336Z,4.23
2019-03-02T18:55:00.284Z,4.43
2019-03-02T18:57:13.198Z,4.70
2019-03-02T18:59:23.911Z,4.30
2019-03-02T19:02:16.388Z,4.57
2019-03-02T19:05:09.756Z,3.93
2019-03-02T19:07:21.500Z,3.80
2019-03-02T19:09:33.335Z,4.10
2019-03-02T19:11:45.049Z,4.17
2019-03-02T19:13:55.853Z,4.67
2019-03-02T19:16:06.662Z,4.10
2019-03-02T19:18:17.511Z,4.10
2019-03-02T19:20:28.339Z,4.10
2019-03-02T19:22:39.218Z,3.53
2019-03-02T19:24:50.157Z,3.70
2019-03-02T19:27:01.000Z,4.67
2019-03-02T19:29:11.836Z,4.17
2019-03-02T19:31:22.780Z,4.00
2019-03-02T19:33:33.711Z,4.13
2019-03-02T19:35:44.540Z,4.27
2019-03-02T19:37:55.357Z,4.03
2019-03-02T19:40:47.806Z,4.20
2019-03-02T19:42:58.748Z,4.03
2019-03-02T19:45:51.234Z,4.10
2019-03-02T19:48:02.071Z,4.00
2019-03-02T19:50:32.812Z,4.37
2019-03-02T19:52:43.751Z,3.70
2019-03-02T19:54:54.595Z,4.07
2019-03-02T19:57:05.467Z,3.80
2019-03-02T19:59:16.301Z,3.90
2019-03-02T20:01:27.082Z,3.47
2019-03-02T20:03:38.213Z,4.00
2019-03-02T20:05:49.022Z,3.23
2019-03-02T20:07:59.851Z,3.53
2019-03-02T20:10:52.329Z,3.43
2019-03-02T20:13:03.152Z,3.87
2019-03-02T20:15:55.675Z,4.20
2019-03-02T20:18:06.494Z,3.40
2019-03-02T20:20:58.954Z,3.33
2019-03-02T20:23:09.806Z,3.17
2019-03-02T20:25:20.648Z,3.57
2019-03-02T20:27:31.486Z,3.00
2019-03-02T20:29:42.278Z,3.90
2019-03-02T20:31:53.132Z,3.43
2019-03-02T20:34:04.048Z,2.80
2019-03-02T20:36:14.894Z,3.50
2019-03-02T20:38:25.827Z,2.47
2019-03-02T20:40:36.658Z,2.57
2019-03-02T20:42:47.491Z,3.47
2019-03-02T20:44:58.320Z,2.87
2019-03-02T20:47:09.149Z,3.20
2019-03-02T20:49:19.957Z,3.40
2019-03-02T20:51:30.768Z,2.83
2019-03-02T20:53:41.755Z,2.67
2019-03-02T20:55:52.553Z,3.30
2019-03-02T20:58:03.516Z,3.07
2019-03-02T21:00:34.988Z,3.50
2019-03-02T21:02:45.833Z,2.53
2019-03-02T21:04:56.630Z,2.90
2019-03-02T21:07:07.459Z,2.80
2019-03-02T21:09:18.385Z,3.00
2019-03-02T21:11:29.212Z,2.70
2019-03-02T21:13:40.144Z,2.83
2019-03-02T21:15:50.970Z,2.33
2019-03-02T21:18:02.183Z,2.83
2019-03-02T21:20:54.635Z,2.73
2019-03-02T21:23:05.673Z,2.67
2019-03-02T21:25:16.702Z,2.40
2019-03-02T21:27:27.542Z,2.40
2019-03-02T21:29:38.354Z,2.90
2019-03-02T21:31:49.181Z,2.70
2019-03-02T21:34:00.026Z,2.70
2019-03-02T21:36:10.946Z,2.67
2019-03-02T21:38:21.777Z,2.27
2019-03-02T21:41:14.229Z,2.27
2019-03-02T21:43:25.089Z,2.80
2019-03-02T21:45:36.009Z,2.37
2019-03-02T21:47:47.161Z,2.60
2019-03-02T21:49:57.998Z,1.97
2019-03-02T21:55:01.083Z,1.83
2019-03-02T21:57:12.042Z,1.90
2019-03-02T21:59:22.885Z,2.07
2019-03-02T22:01:33.736Z,2.60
2019-03-02T22:03:44.596Z,1.80
2019-03-02T22:05:55.399Z,1.63
2019-03-02T22:08:06.228Z,2.00
2019-03-02T22:10:58.696Z,2.03
2019-03-02T22:13:09.525Z,2.10
2019-03-02T22:15:20.349Z,1.87
2019-03-02T22:17:31.149Z,1.80
2019-03-02T22:19:41.977Z,1.60
2019-03-02T22:21:52.792Z,1.63
2019-03-02T22:24:03.703Z,1.80
2019-03-02T22:26:36.288Z,1.90
2019-03-02T22:28:47.131Z,1.70
2019-03-02T22:30:57.957Z,1.80
2019-03-02T22:33:08.767Z,1.90
2019-03-02T22:35:19.701Z,1.70
2019-03-02T22:37:30.502Z,1.60
2019-03-02T22:39:41.340Z,1.47
2019-03-02T22:41:52.182Z,1.50
2019-03-02T22:44:03.101Z,1.30
2019-03-02T22:46:13.923Z,1.53
2019-03-02T22:48:24.724Z,1.30
2019-03-02T22:50:35.565Z,1.53
2019-03-02T22:52:46.515Z,1.83
2019-03-02T22:54:57.431Z,1.33
2019-03-02T22:57:08.272Z,1.53
2019-03-02T22:59:19.083Z,1.03
2019-03-02T23:02:09.672Z,1.07
2019-03-02T23:04:20.451Z,1.00
2019-03-02T23:06:31.266Z,1.00
2019-03-02T23:08:42.130Z,1.17
2019-03-02T23:10:52.933Z,1.00
2019-03-02T23:13:03.738Z,1.20
2019-03-02T23:15:56.193Z,1.30
2019-03-02T23:18:07.117Z,1.10
2019-03-02T23:20:18.054Z,1.23
2019-03-02T23:22:28.874Z,1.23
2019-03-02T23:24:39.671Z,1.50
2019-03-02T23:26:50.513Z,1.10
2019-03-02T23:29:01.340Z,1.07
2019-03-02T23:31:12.139Z,0.90
2019-03-02T23:33:23.015Z,0.90
2019-03-02T23:35:33.941Z,1.10
2019-03-02T23:37:44.773Z,0.80
2019-03-02T23:39:55.579Z,1.47
2019-03-02T23:42:06.451Z,0.77
2019-03-02T23:44:17.249Z,1.00
2019-03-02T23:46:28.077Z,0.90
2019-03-02T23:48:38.887Z,0.90
2019-03-02T23:50:49.686Z,0.90
2019-03-02T23:53:00.522Z,0.90
2019-03-02T23:55:52.980Z,1.03
2019-03-02T23:58:45.443Z,0.97
